Time;durP1;ratioP1;P1;durP2;ratioP2;P2;SDS_P1;SDS_P2;PMS_P1;PMS_P2;Temp;Humidity;BMP_temperature;BMP_pressure;BME280_temperature;BME280_humidity;BME280_pressure;Samples;Min_cycle;Max_cycle;Signal;HPM_P1;HPM_P2
2023/09/03 00:02:53;;;;;;;5.70;5.30;;;23.70;67.10;;;;;;222155;1254;22515;-48
2023/09/03 00:07:56;;;;;;;5.80;5.20;;;23.70;67.60;;;;;;222716;1264;22524;-51
2023/09/03 00:12:59;;;;;;;5.90;5.20;;;23.70;67.20;;;;;;222481;1263;22636;-49
2023/09/03 00:18:01;;;;;;;5.50;5.00;;;23.70;67.20;;;;;;222102;1267;191935;-52
2023/09/03 00:23:05;;;;;;;5.70;5.30;;;23.70;66.90;;;;;;222084;1260;23319;-48
2023/09/03 00:28:07;;;;;;;6.00;5.40;;;23.70;67.50;;;;;;222343;1263;22517;-49
2023/09/03 00:33:10;;;;;;;5.90;4.90;;;23.70;66.90;;;;;;222142;1244;24375;-51
2023/09/03 00:38:13;;;;;;;5.20;4.90;;;23.80;67.00;;;;;;222336;1257;22517;-52
2023/09/03 00:43:16;;;;;;;5.70;4.70;;;23.80;67.00;;;;;;222448;1260;23832;-51
2023/09/03 00:48:23;;;;;;;5.10;4.70;;;23.70;67.10;;;;;;222333;1261;22533;-52
2023/09/03 00:53:29;;;;;;;5.20;4.80;;;23.70;67.00;;;;;;222612;1260;24262;-49
2023/09/03 00:58:33;;;;;;;5.50;5.10;;;23.70;66.90;;;;;;222374;1261;25424;-51
2023/09/03 01:03:35;;;;;;;4.60;4.20;;;23.80;67.40;;;;;;222534;1258;23799;-51
2023/09/03 01:08:39;;;;;;;4.70;4.30;;;23.80;67.00;;;;;;222396;1268;22562;-49
2023/09/03 01:13:52;;;;;;;4.70;4.20;;;23.80;66.90;;;;;;221727;1260;22659;-51
2023/09/03 01:18:59;;;;;;;4.90;4.50;;;23.80;67.00;;;;;;223770;1261;22639;-49
2023/09/03 01:24:28;;;;;;;4.60;4.20;;;23.80;66.70;;;;;;222729;1261;22630;-49
2023/09/03 01:29:31;;;;;;;5.10;4.70;;;23.80;67.20;;;;;;222471;1268;24205;-53
2023/09/03 01:34:36;;;;;;;5.20;4.70;;;23.80;67.10;;;;;;222460;1254;23017;-51
2023/09/03 01:39:39;;;;;;;4.60;4.20;;;23.70;66.80;;;;;;222325;1257;22523;-52
2023/09/03 01:44:42;;;;;;;4.70;3.90;;;23.80;67.40;;;;;;222704;1254;22530;-49
2023/09/03 01:49:59;;;;;;;4.40;4.10;;;23.70;67.00;;;;;;222421;1261;24362;-50
2023/09/03 01:55:07;;;;;;;4.20;3.90;;;23.70;67.10;;;;;;222254;1253;22544;-46
2023/09/03 02:00:18;;;;;;;4.40;4.10;;;23.80;67.40;;;;;;222565;1261;24264;-51
2023/09/03 02:05:21;;;;;;;4.80;4.20;;;23.70;67.10;;;;;;222562;1263;24086;-50
2023/09/03 02:10:25;;;;;;;4.00;3.70;;;23.70;67.10;;;;;;222464;1257;24254;-48
2023/09/03 02:15:28;;;;;;;4.50;4.20;;;23.80;67.40;;;;;;222844;1261;24195;-51
2023/09/03 02:20:31;;;;;;;4.40;4.10;;;23.70;67.30;;;;;;222129;1261;22650;-48
2023/09/03 02:25:33;;;;;;;4.40;4.10;;;23.80;67.50;;;;;;222161;1261;22636;-52
2023/09/03 02:30:36;;;;;;;4.70;4.30;;;23.70;67.20;;;;;;222463;1263;23896;-52
2023/09/03 02:35:39;;;;;;;4.00;3.70;;;23.80;67.20;;;;;;222440;1246;22515;-51
2023/09/03 02:40:42;;;;;;;4.30;3.90;;;23.90;67.40;;;;;;222286;1254;23920;-52
2023/09/03 02:45:45;;;;;;;3.90;3.60;;;23.80;67.10;;;;;;222433;1254;26727;-51
2023/09/03 02:50:47;;;;;;;4.00;3.70;;;23.80;67.50;;;;;;222169;1261;22653;-53
2023/09/03 02:55:51;;;;;;;4.10;3.70;;;23.80;67.10;;;;;;222401;1268;23892;-52
2023/09/03 03:00:53;;;;;;;4.10;3.80;;;23.80;67.20;;;;;;222215;1254;24924;-48
2023/09/03 03:05:57;;;;;;;3.70;3.50;;;23.70;67.30;;;;;;222657;1263;24984;-51
2023/09/03 03:11:10;;;;;;;4.50;3.70;;;23.80;67.40;;;;;;222160;1263;22515;-50
2023/09/03 03:16:15;;;;;;;4.00;3.70;;;23.70;67.20;;;;;;222433;1265;22548;-51
2023/09/03 03:21:22;;;;;;;3.90;3.60;;;23.80;67.50;;;;;;224896;1247;25301;-52
2023/09/03 03:26:29;;;;;;;3.80;3.60;;;23.80;67.00;;;;;;225250;1254;22639;-52
2023/09/03 03:31:32;;;;;;;4.50;4.00;;;23.90;66.80;;;;;;222638;1262;25170;-48
2023/09/03 03:36:35;;;;;;;4.40;3.70;;;23.80;67.10;;;;;;222402;1261;23915;-51
2023/09/03 03:41:38;;;;;;;3.80;3.50;;;23.70;67.40;;;;;;222206;1259;22539;-48
2023/09/03 03:46:44;;;;;;;3.90;3.60;;;23.70;67.40;;;;;;222502;1261;22660;-51
2023/09/03 03:51:46;;;;;;;3.80;3.60;;;23.80;67.40;;;;;;222233;1254;23899;-49
2023/09/03 03:56:50;;;;;;;6.30;4.00;;;23.80;67.40;;;;;;222219;1268;25331;-49
2023/09/03 04:01:53;;;;;;;3.60;3.30;;;23.70;67.40;;;;;;222675;1256;22636;-53
2023/09/03 04:06:56;;;;;;;4.00;3.60;;;23.70;67.40;;;;;;222307;1263;22518;-50
2023/09/03 04:11:58;;;;;;;3.40;3.20;;;23.70;67.40;;;;;;222467;1261;22514;-49
2023/09/03 04:17:01;;;;;;;4.00;3.60;;;23.70;67.50;;;;;;222109;1266;25239;-49
2023/09/03 04:22:05;;;;;;;4.00;3.70;;;23.70;67.60;;;;;;222914;1266;25502;-50
2023/09/03 04:27:08;;;;;;;3.30;3.10;;;23.70;67.50;;;;;;222455;1266;23860;-49
2023/09/03 04:32:12;;;;;;;4.50;3.50;;;23.70;67.50;;;;;;222913;1268;22609;-48
2023/09/03 04:37:15;;;;;;;3.70;3.50;;;23.70;67.60;;;;;;222673;1265;25376;-52
2023/09/03 04:42:18;;;;;;;3.70;3.50;;;23.70;67.40;;;;;;222372;1254;23752;-51
2023/09/03 04:47:21;;;;;;;3.70;3.40;;;23.70;67.60;;;;;;222926;1260;22618;-49
2023/09/03 04:52:23;;;;;;;3.80;3.50;;;23.70;67.60;;;;;;222559;1256;22602;-49
2023/09/03 04:57:27;;;;;;;4.00;3.70;;;23.70;67.50;;;;;;222472;1263;23352;-49
2023/09/03 05:02:34;;;;;;;3.90;3.60;;;23.70;67.40;;;;;;222528;1253;25456;-50
2023/09/03 05:07:37;;;;;;;4.00;3.70;;;23.70;67.50;;;;;;222382;1256;22690;-50
2023/09/03 05:12:40;;;;;;;3.20;3.00;;;23.70;67.50;;;;;;222537;1256;22779;-51
2023/09/03 05:17:44;;;;;;;3.60;3.30;;;23.70;67.40;;;;;;222487;1263;22527;-53
2023/09/03 05:22:47;;;;;;;3.30;3.10;;;23.70;67.80;;;;;;222303;1269;22507;-51
2023/09/03 05:27:50;;;;;;;3.70;3.10;;;23.60;67.50;;;;;;222403;1260;22611;-50
2023/09/03 05:32:53;;;;;;;3.20;3.00;;;23.60;67.40;;;;;;222658;1256;25294;-51
2023/09/03 05:37:58;;;;;;;3.60;3.40;;;23.70;67.40;;;;;;222528;1268;22531;-50
2023/09/03 05:43:01;;;;;;;3.60;3.40;;;23.70;67.80;;;;;;222374;1265;22531;-51
2023/09/03 05:48:05;;;;;;;3.10;2.90;;;23.70;67.40;;;;;;222233;1266;22510;-55
2023/09/03 05:53:08;;;;;;;3.60;3.30;;;23.60;67.50;;;;;;222393;1263;24219;-52
2023/09/03 05:58:11;;;;;;;3.60;3.30;;;23.70;67.50;;;;;;222191;1265;25498;-52
2023/09/03 06:03:14;;;;;;;3.50;3.20;;;23.70;67.60;;;;;;222300;1259;23881;-51
2023/09/03 06:08:18;;;;;;;3.60;3.30;;;23.70;67.40;;;;;;222516;1268;22527;-51
2023/09/03 06:13:21;;;;;;;3.20;3.00;;;23.70;67.80;;;;;;222251;1259;24365;-50
2023/09/03 06:18:25;;;;;;;4.00;3.00;;;23.70;67.40;;;;;;222435;1268;22518;-54
2023/09/03 06:23:28;;;;;;;2.90;2.80;;;23.70;68.10;;;;;;222412;1253;22531;-49
2023/09/03 06:28:33;;;;;;;3.40;3.20;;;23.70;67.80;;;;;;222137;1266;22536;-50
2023/09/03 06:33:36;;;;;;;3.50;3.20;;;23.80;67.50;;;;;;222463;1254;22531;-51
2023/09/03 06:38:43;;;;;;;3.30;3.10;;;23.80;67.70;;;;;;222600;1263;22517;-50
2023/09/03 06:43:49;;;;;;;3.10;2.90;;;23.80;67.70;;;;;;222645;1268;22556;-52
2023/09/03 06:48:53;;;;;;;3.10;2.80;;;23.80;67.70;;;;;;222194;1267;22532;-48
2023/09/03 06:53:56;;;;;;;3.10;2.90;;;23.80;67.40;;;;;;222640;1263;24237;-50
2023/09/03 06:59:00;;;;;;;6.80;3.30;;;23.90;67.30;;;;;;222387;1260;22506;-53
2023/09/03 07:04:03;;;;;;;3.10;2.90;;;24.00;67.80;;;;;;222431;1261;22524;-55
2023/09/03 07:09:06;;;;;;;3.10;2.90;;;24.00;67.00;;;;;;222276;1266;24067;-51
2023/09/03 07:14:08;;;;;;;3.00;2.80;;;24.10;66.50;;;;;;222094;1268;23912;-53
2023/09/03 07:19:11;;;;;;;3.10;2.90;;;24.20;66.20;;;;;;222316;1263;22514;-52
2023/09/03 07:24:14;;;;;;;3.10;2.80;;;24.10;66.90;;;;;;222690;1264;22596;-51
2023/09/03 07:29:17;;;;;;;3.20;3.00;;;24.00;66.80;;;;;;222562;1263;22529;-52
2023/09/03 07:34:19;;;;;;;4.20;3.00;;;24.10;66.90;;;;;;222595;1266;22518;-49
2023/09/03 07:39:22;;;;;;;5.20;3.20;;;24.10;66.70;;;;;;222365;1266;22648;-51
2023/09/03 07:44:25;;;;;;;3.40;2.80;;;24.10;66.90;;;;;;222362;1260;22543;-53
2023/09/03 07:49:28;;;;;;;4.60;3.10;;;24.10;66.60;;;;;;222150;1250;22538;-51
2023/09/03 07:54:31;;;;;;;4.20;2.30;;;24.10;66.60;;;;;;222135;1256;23892;-50
2023/09/03 07:59:34;;;;;;;10.40;4.60;;;24.10;66.90;;;;;;222316;1256;24269;-49
2023/09/03 08:04:41;;;;;;;9.10;3.60;;;24.30;66.90;;;;;;222271;1268;23889;-49
2023/09/03 08:09:43;;;;;;;4.80;2.90;;;24.30;66.50;;;;;;222377;1263;24216;-48
2023/09/03 08:14:48;;;;;;;9.40;3.30;;;24.30;66.10;;;;;;222486;1261;22653;-52
2023/09/03 08:19:51;;;;;;;6.00;3.30;;;24.30;65.80;;;;;;222298;1264;25485;-51
2023/09/03 08:24:55;;;;;;;7.40;3.80;;;24.20;66.00;;;;;;222555;1263;25169;-52
2023/09/03 08:29:58;;;;;;;7.30;3.50;;;24.20;66.60;;;;;;222153;1266;22534;-50
2023/09/03 08:35:01;;;;;;;4.00;3.60;;;24.10;66.80;;;;;;222274;1266;22519;-51
2023/09/03 08:40:05;;;;;;;4.40;3.90;;;24.20;66.80;;;;;;222305;1266;22514;-51
2023/09/03 08:45:11;;;;;;;6.30;4.10;;;24.20;66.80;;;;;;222107;1263;24193;-49
2023/09/03 08:50:15;;;;;;;6.60;4.00;;;24.20;66.50;;;;;;222597;1266;26557;-50
2023/09/03 08:55:18;;;;;;;4.30;4.00;;;24.30;66.10;;;;;;222930;1264;22514;-51
2023/09/03 09:00:21;;;;;;;6.20;4.30;;;24.30;66.00;;;;;;222326;1266;25459;-50
2023/09/03 09:05:26;;;;;;;7.20;4.30;;;24.30;65.90;;;;;;222265;1249;22525;-50
2023/09/03 09:10:33;;;;;;;5.50;3.60;;;24.30;65.90;;;;;;222520;1260;25274;-45
2023/09/03 09:15:37;;;;;;;6.70;3.70;;;24.40;65.60;;;;;;222316;1260;22513;-48
2023/09/03 09:20:41;;;;;;;8.00;3.70;;;24.40;65.00;;;;;;222033;1266;22568;-50
2023/09/03 09:25:44;;;;;;;11.30;3.60;;;24.30;64.30;;;;;;222946;1268;24253;-47
2023/09/03 09:30:56;;;;;;;3.10;2.90;;;24.40;62.90;;;;;;222307;1266;25322;-46
2023/09/03 09:36:12;;;;;;;6.60;3.50;;;24.20;61.70;;;;;;223300;1266;24199;-46
2023/09/03 09:41:37;;;;;;;3.30;2.80;;;24.10;62.00;;;;;;222474;1247;22632;-50
2023/09/03 09:46:42;;;;;;;3.00;2.70;;;24.30;61.10;;;;;;221901;1266;22513;-49
2023/09/03 09:51:52;;;;;;;3.50;2.60;;;24.30;61.00;;;;;;226822;1265;24060;-47
2023/09/03 09:56:55;;;;;;;5.30;2.60;;;24.30;60.50;;;;;;222348;1245;24193;-45
2023/09/03 10:01:58;;;;;;;4.00;2.70;;;24.30;59.50;;;;;;222375;1261;22755;-48
2023/09/03 10:07:02;;;;;;;2.80;2.40;;;24.20;59.30;;;;;;222205;1260;22518;-50
2023/09/03 10:12:06;;;;;;;5.70;2.60;;;24.10;59.10;;;;;;222306;1268;22510;-51
2023/09/03 10:17:10;;;;;;;10.10;2.40;;;24.30;59.10;;;;;;223173;1265;22528;-51
2023/09/03 10:22:18;;;;;;;4.10;2.20;;;24.10;59.50;;;;;;222494;1263;25373;-50
2023/09/03 10:27:26;;;;;;;4.50;2.20;;;24.00;58.20;;;;;;222201;1267;23874;-50
2023/09/03 10:32:31;;;;;;;2.10;2.00;;;24.00;58.20;;;;;;222342;1266;23271;-49
2023/09/03 10:37:39;;;;;;;4.60;2.00;;;23.90;57.30;;;;;;222082;1263;22522;-49
2023/09/03 10:42:44;;;;;;;2.10;1.90;;;23.70;56.90;;;;;;222139;1258;24186;-48
2023/09/03 10:48:04;;;;;;;5.00;2.10;;;23.80;56.00;;;;;;221909;1263;22769;-50
2023/09/03 10:53:07;;;;;;;2.10;1.60;;;24.10;54.70;;;;;;222121;1263;24391;-49
2023/09/03 10:58:30;;;;;;;3.80;1.70;;;24.30;53.40;;;;;;222399;1267;22538;-48
2023/09/03 11:03:48;;;;;;;4.60;1.80;;;24.30;53.30;;;;;;222460;1266;22608;-49
2023/09/03 11:09:05;;;;;;;6.60;1.70;;;24.50;54.30;;;;;;222267;1265;23769;-50
2023/09/03 11:14:10;;;;;;;4.90;1.60;;;24.30;53.80;;;;;;222274;1266;24199;-48
2023/09/03 11:19:13;;;;;;;4.60;1.40;;;24.20;53.50;;;;;;222255;1263;25412;-51
2023/09/03 11:24:18;;;;;;;6.40;2.00;;;24.20;53.60;;;;;;223013;1266;22531;-52
2023/09/03 11:29:23;;;;;;;8.50;3.70;;;24.30;53.30;;;;;;221763;1263;25618;-49
2023/09/03 11:34:29;;;;;;;6.90;2.30;;;24.30;53.00;;;;;;221813;1261;22613;-46
2023/09/03 11:39:33;;;;;;;5.70;1.90;;;24.30;53.00;;;;;;222267;1265;22517;-45
2023/09/03 11:44:36;;;;;;;6.20;1.80;;;24.40;53.20;;;;;;222210;1260;22635;-44
2023/09/03 11:49:45;;;;;;;3.30;1.70;;;24.20;52.30;;;;;;222197;1263;22537;-49
2023/09/03 11:54:50;;;;;;;1.40;1.30;;;23.90;52.90;;;;;;222677;1269;24220;-45
2023/09/03 11:59:54;;;;;;;2.10;1.90;;;23.90;52.50;;;;;;222749;1263;22519;-47
2023/09/03 12:04:59;;;;;;;2.60;1.70;;;24.00;52.70;;;;;;223239;1264;22620;-49
2023/09/03 12:10:03;;;;;;;1.70;1.60;;;24.00;53.10;;;;;;222428;1266;22528;-49
2023/09/03 12:15:21;;;;;;;2.50;1.50;;;23.90;53.20;;;;;;222608;1266;196068;-49
2023/09/03 12:20:51;;;;;;;1.60;1.40;;;23.90;52.10;;;;;;222962;1266;25274;-45
2023/09/03 12:25:55;;;;;;;2.00;1.30;;;23.90;51.40;;;;;;222655;1266;22521;-46
2023/09/03 12:31:00;;;;;;;1.40;1.30;;;23.90;51.50;;;;;;222441;1266;22524;-49
2023/09/03 12:36:11;;;;;;;1.60;1.50;;;23.80;51.20;;;;;;222341;1261;22528;-50
2023/09/03 12:41:14;;;;;;;1.50;1.40;;;23.80;51.00;;;;;;222231;1261;24341;-50
2023/09/03 12:46:19;;;;;;;1.60;1.50;;;23.80;51.00;;;;;;222565;1264;22626;-45
2023/09/03 12:51:22;;;;;;;3.30;3.00;;;23.80;51.20;;;;;;222440;1267;22544;-49
2023/09/03 12:56:28;;;;;;;1.70;1.50;;;23.80;51.10;;;;;;222221;1253;22533;-46
2023/09/03 13:01:38;;;;;;;1.90;1.80;;;23.70;51.90;;;;;;222328;1268;24256;-48
2023/09/03 13:06:43;;;;;;;1.80;1.70;;;23.80;51.90;;;;;;222428;1264;22529;-47
2023/09/03 13:11:47;;;;;;;2.70;2.00;;;23.80;53.20;;;;;;222621;1263;22538;-47
2023/09/03 13:16:57;;;;;;;1.70;1.60;;;23.70;53.50;;;;;;222121;1260;22790;-49
2023/09/03 13:22:02;;;;;;;1.90;1.70;;;23.70;53.60;;;;;;222478;1268;25265;-49
2023/09/03 13:27:06;;;;;;;1.90;1.80;;;23.60;54.40;;;;;;222312;1268;22535;-47
2023/09/03 13:32:10;;;;;;;3.10;2.00;;;23.70;54.50;;;;;;222535;1266;22548;-46
2023/09/03 13:37:14;;;;;;;3.50;2.20;;;23.70;54.80;;;;;;221926;1255;23007;-47
2023/09/03 13:42:19;;;;;;;1.80;1.70;;;23.60;54.90;;;;;;222633;1263;23917;-46
2023/09/03 13:47:23;;;;;;;2.80;1.70;;;23.60;54.60;;;;;;222641;1260;22536;-47
2023/09/03 13:52:29;;;;;;;2.30;1.90;;;23.50;55.10;;;;;;222591;1268;24213;-50
2023/09/03 13:57:35;;;;;;;2.10;1.80;;;23.50;54.60;;;;;;222876;1257;22527;-46
2023/09/03 14:02:39;;;;;;;3.00;2.10;;;23.40;54.90;;;;;;222485;1266;25274;-48
2023/09/03 14:07:44;;;;;;;2.00;1.90;;;23.50;54.90;;;;;;222440;1268;24269;-47
2023/09/03 14:12:52;;;;;;;1.80;1.70;;;23.50;55.00;;;;;;222454;1268;24291;-47
2023/09/03 14:17:56;;;;;;;3.50;1.70;;;23.50;55.30;;;;;;222446;1266;24321;-50
2023/09/03 14:23:00;;;;;;;1.80;1.70;;;23.50;55.70;;;;;;222353;1267;25498;-46
2023/09/03 14:28:04;;;;;;;1.90;1.80;;;23.50;56.00;;;;;;222151;1263;22537;-48
2023/09/03 14:33:10;;;;;;;1.80;1.70;;;23.40;56.30;;;;;;222886;1263;22535;-47
2023/09/03 14:38:14;;;;;;;1.80;1.70;;;23.40;56.00;;;;;;222550;1268;22531;-51
2023/09/03 14:43:19;;;;;;;1.90;1.70;;;23.30;56.20;;;;;;222649;1268;24225;-51
2023/09/03 14:48:23;;;;;;;1.80;1.60;;;23.30;55.60;;;;;;222764;1268;22515;-49
2023/09/03 14:53:27;;;;;;;1.90;1.80;;;23.30;55.70;;;;;;223003;1266;22575;-46
2023/09/03 14:58:31;;;;;;;3.60;1.90;;;23.30;55.80;;;;;;222737;1266;22645;-47
2023/09/03 15:03:34;;;;;;;1.90;1.80;;;23.30;55.50;;;;;;222411;1269;23892;-49
2023/09/03 15:08:38;;;;;;;2.00;1.80;;;23.30;55.70;;;;;;222773;1266;22767;-49
2023/09/03 15:13:43;;;;;;;2.10;1.60;;;23.20;55.70;;;;;;222664;1263;23105;-46
2023/09/03 15:18:47;;;;;;;2.20;2.00;;;23.20;55.40;;;;;;222629;1261;22520;-49
2023/09/03 15:23:51;;;;;;;1.90;1.70;;;23.20;55.80;;;;;;222384;1259;24358;-49
2023/09/03 15:28:55;;;;;;;2.20;1.70;;;23.20;55.40;;;;;;222807;1264;23260;-47
2023/09/03 15:33:59;;;;;;;2.30;2.10;;;23.20;55.60;;;;;;222464;1268;24320;-52
2023/09/03 15:39:04;;;;;;;2.00;1.80;;;23.20;55.70;;;;;;222359;1268;24365;-47
2023/09/03 15:44:08;;;;;;;1.70;1.60;;;23.20;55.90;;;;;;222820;1261;22532;-50
2023/09/03 15:49:12;;;;;;;4.00;2.00;;;23.20;56.30;;;;;;222465;1254;25358;-50
2023/09/03 15:54:17;;;;;;;1.80;1.60;;;23.10;55.70;;;;;;222112;1263;24328;-48
2023/09/03 15:59:24;;;;;;;6.40;1.90;;;23.20;55.60;;;;;;222595;1266;22520;-48
2023/09/03 16:04:29;;;;;;;3.30;1.70;;;23.20;55.90;;;;;;222416;1266;25399;-49
2023/09/03 16:09:33;;;;;;;5.30;2.20;;;23.30;56.00;;;;;;223561;1268;24209;-46
2023/09/03 16:14:39;;;;;;;9.80;2.00;;;23.50;57.40;;;;;;222202;1269;25370;-48
2023/09/03 16:19:44;;;;;;;7.30;2.10;;;23.70;58.90;;;;;;222367;1257;22520;-51
2023/09/03 16:24:48;;;;;;;8.50;2.30;;;23.90;59.20;;;;;;222230;1260;24189;-48
2023/09/03 16:29:52;;;;;;;7.70;1.70;;;24.00;58.70;;;;;;222717;1267;22518;-46
2023/09/03 16:34:59;;;;;;;6.10;3.00;;;24.00;58.60;;;;;;222690;1269;24239;-48
2023/09/03 16:40:04;;;;;;;7.60;2.40;;;24.10;58.50;;;;;;222387;1268;22540;-48
2023/09/03 16:45:09;;;;;;;3.40;1.80;;;24.10;58.70;;;;;;222383;1266;24205;-50
2023/09/03 16:50:12;;;;;;;5.70;2.50;;;24.00;58.90;;;;;;222479;1263;24323;-50
2023/09/03 16:55:18;;;;;;;8.10;2.10;;;24.00;59.20;;;;;;222291;1261;24216;-49
2023/09/03 17:00:26;;;;;;;11.60;2.30;;;24.20;58.30;;;;;;222663;1267;22654;-47
2023/09/03 17:05:31;;;;;;;7.30;2.10;;;24.20;58.30;;;;;;222467;1269;22524;-46
2023/09/03 17:10:36;;;;;;;3.10;2.10;;;24.30;58.40;;;;;;222491;1267;25481;-47
2023/09/03 17:15:41;;;;;;;4.70;2.10;;;24.30;58.40;;;;;;222014;1269;22524;-46
2023/09/03 17:20:45;;;;;;;4.30;2.50;;;24.40;58.10;;;;;;222151;1269;25161;-47
2023/09/03 17:25:50;;;;;;;3.90;2.20;;;24.30;58.50;;;;;;222995;1262;22528;-49
2023/09/03 17:31:00;;;;;;;4.00;2.20;;;24.30;58.80;;;;;;222755;1268;22569;-48
2023/09/03 17:36:12;;;;;;;13.70;2.40;;;24.20;59.10;;;;;;222751;1268;22632;-49
2023/09/03 17:41:16;;;;;;;15.90;2.70;;;24.20;58.60;;;;;;221813;1272;22548;-50
2023/09/03 17:46:20;;;;;;;8.90;2.30;;;24.20;60.50;;;;;;221751;1272;24107;-47
2023/09/03 17:51:23;;;;;;;13.40;2.20;;;24.00;57.70;;;;;;221820;1266;22582;-49
2023/09/03 17:56:27;;;;;;;3.50;1.70;;;23.80;56.50;;;;;;221502;1272;22520;-47
2023/09/03 18:01:35;;;;;;;5.10;1.90;;;23.60;55.70;;;;;;221447;1272;24568;-44
2023/09/03 18:06:41;;;;;;;13.00;3.60;;;23.60;55.90;;;;;;221450;1265;22527;-50
2023/09/03 18:11:48;;;;;;;22.70;3.30;;;23.70;61.60;;;;;;221675;1265;25484;-48
2023/09/03 18:16:52;;;;;;;10.30;3.00;;;24.00;58.90;;;;;;222213;1267;24472;-47
2023/09/03 18:21:57;;;;;;;12.10;3.60;;;24.00;59.40;;;;;;222613;1260;22615;-48
2023/09/03 18:27:03;;;;;;;12.40;3.10;;;24.00;59.10;;;;;;222276;1268;24192;-48
2023/09/03 18:32:14;;;;;;;;;;;24.10;61.90;;;;;;222312;1266;24221;-50
2023/09/03 18:37:22;;;;;;;13.70;3.20;;;24.30;60.60;;;;;;222488;1263;22662;-46
2023/09/03 18:42:28;;;;;;;10.20;2.80;;;24.30;61.30;;;;;;222610;1260;25412;-47
2023/09/03 18:47:32;;;;;;;9.80;2.60;;;24.20;61.80;;;;;;222806;1261;23878;-50
2023/09/03 18:52:37;;;;;;;8.60;2.70;;;24.20;60.30;;;;;;222831;1260;25478;-47
2023/09/03 18:57:41;;;;;;;3.80;2.20;;;24.20;60.00;;;;;;222935;1261;22659;-45
2023/09/03 19:02:45;;;;;;;13.30;3.00;;;24.00;59.90;;;;;;222612;1256;24830;-49
2023/09/03 19:07:56;;;;;;;5.80;2.40;;;24.00;60.00;;;;;;222454;1250;24193;-47
2023/09/03 19:13:05;;;;;;;10.30;2.90;;;24.00;60.80;;;;;;222882;1265;22629;-49
2023/09/03 19:18:11;;;;;;;3.60;2.20;;;24.10;60.40;;;;;;222858;1261;22525;-49
2023/09/03 19:23:16;;;;;;;6.80;2.40;;;24.00;60.30;;;;;;222201;1260;23194;-51
2023/09/03 19:28:21;;;;;;;3.80;2.70;;;24.10;60.60;;;;;;222819;1260;22532;-45
2023/09/03 19:33:25;;;;;;;6.30;2.30;;;24.10;60.70;;;;;;222896;1268;24317;-48
2023/09/03 19:38:33;;;;;;;6.20;2.00;;;24.00;60.10;;;;;;222387;1266;22536;-50
2023/09/03 19:43:39;;;;;;;6.70;2.50;;;24.10;61.90;;;;;;222428;1264;25399;-48
2023/09/03 19:48:44;;;;;;;5.70;2.60;;;24.00;61.60;;;;;;222874;1264;25609;-50
2023/09/03 19:53:52;;;;;;;7.60;2.50;;;24.10;62.80;;;;;;222673;1260;22652;-49
2023/09/03 19:59:00;;;;;;;4.60;2.40;;;24.00;62.90;;;;;;222531;1261;22507;-50
2023/09/03 20:04:06;;;;;;;5.80;2.20;;;24.00;62.10;;;;;;222465;1261;22557;-48
2023/09/03 20:09:11;;;;;;;4.10;2.00;;;24.00;61.80;;;;;;223097;1260;25329;-46
2023/09/03 20:14:16;;;;;;;4.00;2.10;;;24.00;61.50;;;;;;222743;1261;22516;-48
2023/09/03 20:19:22;;;;;;;5.20;2.30;;;24.00;62.80;;;;;;222749;1263;22639;-52
2023/09/03 20:24:34;;;;;;;7.70;2.60;;;24.10;62.60;;;;;;222970;1254;24244;-56
2023/09/03 20:29:38;;;;;;;9.60;3.00;;;24.10;64.20;;;;;;222465;1254;22539;-57
2023/09/03 20:34:43;;;;;;;6.70;3.10;;;24.10;65.60;;;;;;222780;1264;24195;-55
2023/09/03 20:39:49;;;;;;;6.90;2.80;;;24.00;64.00;;;;;;222667;1261;25378;-55
2023/09/03 20:44:53;;;;;;;9.90;3.10;;;24.00;63.20;;;;;;222976;1260;22530;-54
2023/09/03 20:49:57;;;;;;;4.30;2.40;;;23.90;63.20;;;;;;222513;1260;23003;-53
2023/09/03 20:55:01;;;;;;;5.40;2.40;;;23.90;62.50;;;;;;222627;1261;25405;-54
2023/09/03 21:00:05;;;;;;;3.10;2.40;;;24.00;62.10;;;;;;222783;1261;25367;-54
2023/09/03 21:05:10;;;;;;;4.20;2.50;;;24.00;62.30;;;;;;222494;1253;22536;-54
2023/09/03 21:10:13;;;;;;;2.50;2.20;;;24.00;61.80;;;;;;223065;1254;24203;-52
2023/09/03 21:15:16;;;;;;;5.70;2.90;;;23.90;62.00;;;;;;222396;1267;22617;-53
2023/09/03 21:20:19;;;;;;;3.20;2.40;;;23.90;61.70;;;;;;222599;1261;22717;-54
2023/09/03 21:25:22;;;;;;;5.40;3.40;;;23.90;61.70;;;;;;222302;1266;22518;-52
2023/09/03 21:30:25;;;;;;;5.80;3.60;;;23.90;62.30;;;;;;222236;1264;22554;-50
2023/09/03 21:35:27;;;;;;;10.40;4.80;;;24.00;63.30;;;;;;222254;1266;22643;-52
2023/09/03 21:40:31;;;;;;;5.40;3.40;;;23.90;64.30;;;;;;222273;1261;25324;-53
2023/09/03 21:45:33;;;;;;;69.60;31.00;;;23.90;63.80;;;;;;222632;1261;22520;-51
2023/09/03 21:50:36;;;;;;;59.40;34.70;;;23.90;64.10;;;;;;223028;1264;25350;-50
2023/09/03 21:55:40;;;;;;;57.10;30.80;;;24.10;62.90;;;;;;222902;1254;22614;-53
2023/09/03 22:00:44;;;;;;;35.00;20.40;;;24.10;62.90;;;;;;222655;1260;27623;-52
2023/09/03 22:05:47;;;;;;;32.00;17.80;;;24.10;63.20;;;;;;222653;1248;22532;-52
2023/09/03 22:10:50;;;;;;;22.80;13.70;;;24.00;63.10;;;;;;222707;1254;22521;-54
2023/09/03 22:15:53;;;;;;;22.70;12.60;;;24.00;63.20;;;;;;222581;1257;24225;-49
2023/09/03 22:20:56;;;;;;;24.10;12.70;;;24.00;63.00;;;;;;222078;1260;22611;-51
2023/09/03 22:26:00;;;;;;;19.40;11.60;;;24.00;62.90;;;;;;222643;1256;22531;-53
2023/09/03 22:31:05;;;;;;;16.20;9.60;;;23.90;62.70;;;;;;222727;1260;22527;-49
2023/09/03 22:36:08;;;;;;;18.40;9.90;;;24.00;62.60;;;;;;222870;1266;22521;-54
2023/09/03 22:41:11;;;;;;;19.10;8.30;;;24.00;63.00;;;;;;222716;1261;23003;-52
2023/09/03 22:46:15;;;;;;;16.30;8.50;;;24.00;63.00;;;;;;222502;1261;23796;-52
2023/09/03 22:51:20;;;;;;;11.60;6.90;;;24.00;63.00;;;;;;222461;1264;25372;-55
2023/09/03 22:56:23;;;;;;;12.90;6.40;;;24.10;62.40;;;;;;222620;1261;23949;-54
2023/09/03 23:01:25;;;;;;;12.70;6.80;;;24.00;62.50;;;;;;222727;1264;22770;-56
2023/09/03 23:06:28;;;;;;;9.00;6.50;;;24.10;63.00;;;;;;222618;1261;23312;-55
2023/09/03 23:11:31;;;;;;;8.20;6.20;;;24.20;62.80;;;;;;222238;1266;25409;-54
2023/09/03 23:16:34;;;;;;;7.40;5.50;;;24.20;62.40;;;;;;222383;1254;22754;-53
2023/09/03 23:21:38;;;;;;;8.50;5.20;;;24.40;62.10;;;;;;222502;1268;24222;-55
2023/09/03 23:26:44;;;;;;;8.70;5.10;;;24.40;61.80;;;;;;222465;1260;22524;-55
2023/09/03 23:31:46;;;;;;;8.20;5.40;;;24.50;61.70;;;;;;222409;1266;24422;-55
2023/09/03 23:36:49;;;;;;;6.40;4.80;;;24.50;61.60;;;;;;222691;1263;22711;-54
2023/09/03 23:41:52;;;;;;;7.80;5.00;;;24.50;61.70;;;;;;222320;1263;22653;-51
2023/09/03 23:46:54;;;;;;;7.60;5.10;;;24.40;62.00;;;;;;224387;1268;22765;-54
2023/09/03 23:52:12;;;;;;;8.60;6.10;;;24.40;61.90;;;;;;222559;1260;25293;-54
2023/09/03 23:57:15;;;;;;;7.10;4.80;;;24.50;61.90;;;;;;222437;1244;24977;-55
